EGHE/ISC METAR and TAF weather

Enter ICAO airport designator
Station Type Date Time Source
EGHE METAR 2021/07/26 16:50 UTC NOAA

EGHE 261650Z 28008KT 9999 FEW012 18/16 Q1012


Station Type Date Time Source
EGHE Decoded METAR 2021/07/26 16:50 UTC NOAA

Scilly, Saint Mary'S, United Kingdom (EGHE) 49-55N 006-18W 0M
Jul 26, 2021 - 12:50 PM EDT / 2021.07.26 1650 UTC
Wind: from the W (280 degrees) at 9 MPH (8 KT):0
Visibility: greater than 7 mile(s):0
Sky conditions: mostly clear
Temperature: 64 F (18 C)
Dew Point: 60 F (16 C)
Relative Humidity: 88%
Pressure (altimeter): 29.88 in. Hg (1012 hPa)
ob: EGHE 261650Z 28008KT 9999 FEW012 18/16 Q1012
cycle: 17

Station Type Date Time Source
EGHE TAF UTC NOAA

Error!

Example: see airport list